Flight Track Log - Related Links

Times and Time Zones

All times are in EDT time to prevent confusion due to time zone crossing. See the N960DL flight status page for this flight to view local times or setup timezone preferences in your user account.

Time Position Orientation Groundspeed Altitude Reporting Facility
EDT Latitude Longitude Course Direction KTS MPH feet Rate Location/Type
Sun 08:34:51 PM 33.6500 -84.3667 246° West 201 231 2,600  Level Atlanta TRACON
Sun 08:35:51 PM 33.6833 -84.3000 59° Northeast 253 291 4,300 1,947 Climbing Atlanta TRACON
Sun 08:36:45 PM 33.7500 -84.2833 12° North 253 291 6,300 2,211 Climbing Atlanta TRACON
Sun 08:37:00 PM 33.8001 -84.4965 270° West  Level FlightAware Approximate
Sun 08:37:45 PM 33.8167 -84.3167 337° Northwest 268 308 8,500  Level Atlanta TRACON
Sun 08:38:00 PM 33.7699 -84.6220 234° Southwest  Level FlightAware Approximate
Sun 08:39:00 PM 33.7024 -84.7316 234° Southwest  Level FlightAware Approximate
Sun 08:39:55 PM 33.8100 -84.4889 267° West 259 298 12,700  Level Atlanta Center
Sun 08:40:00 PM 33.6397 -84.8444 246° West  Level FlightAware Approximate
Sun 08:40:55 PM 33.8056 -84.5989 267° West 288 331 14,600  Level Atlanta Center
Sun 08:41:55 PM 33.7508 -84.6808 231° Southwest 293 337 16,500 1,750 Climbing Atlanta Center
Sun 08:42:55 PM 33.6939 -84.7628 230° Southwest 306 352 18,100 1,650 Climbing Atlanta Center
Sun 08:43:55 PM 33.6411 -84.8597 237° Southwest 334 384 19,800 1,450 Climbing Atlanta Center
Sun 08:44:55 PM 33.6028 -84.9667 247° West 354 407 21,000 900 Climbing Atlanta Center
Sun 08:45:55 PM 33.5622 -85.0833 247° West 374 430 21,600 650 Climbing Atlanta Center
Sun 08:46:55 PM 33.5194 -85.2075 248° West 399 459 22,300 900 Climbing Atlanta Center
Sun 08:47:55 PM 33.4931 -85.3514 258° West 423 487 23,400 1,050 Climbing Atlanta Center
Sun 08:48:55 PM 33.4747 -85.4783 260° West 435 501 24,400 1,250 Climbing Atlanta Center
Sun 08:49:55 PM 33.4522 -85.6197 259° West 440 506 25,900 1,500 Climbing Atlanta Center
Sun 08:50:55 PM 33.4294 -85.7614 259° West 440 506 27,400 1,600 Climbing Atlanta Center
Sun 08:51:55 PM 33.4044 -85.9075 258° West 433 498 29,100 1,450 Climbing Atlanta Center
Sun 08:52:55 PM 33.3856 -86.0417 260° West 419 482 30,300 1,200 Climbing Atlanta Center
Sun 08:53:55 PM 33.3647 -86.1606 258° West 424 488 31,500 900 Climbing Atlanta Center
Sun 08:54:55 PM 33.3436 -86.2942 259° West 413 475 32,100 250 Climbing Atlanta Center
Sun 08:55:55 PM 33.3181 -86.4353 258° West 407 468 32,000 -50 Descending Atlanta Center
Sun 08:56:55 PM 33.2989 -86.5564 259° West 402 463 32,000  Level Atlanta Center
Sun 08:57:55 PM 33.2797 -86.6803 260° West 402 463 32,000  Level Atlanta Center
Sun 08:58:55 PM 33.2581 -86.8086 259° West 407 468 32,000  Level Atlanta Center
Sun 08:59:55 PM 33.2319 -86.9394 257° West 407 468 32,000  Level Atlanta Center
Sun 09:00:55 PM 33.1767 -87.0667 243° Southwest 397 457 32,000 100 Level Atlanta Center
Sun 09:01:55 PM 33.1217 -87.1814 240° Southwest 397 457 32,200 400 Climbing Atlanta Center
Sun 09:02:55 PM 33.0686 -87.3008 242° Southwest 397 457 32,800 850 Climbing Atlanta Center
Sun 09:03:55 PM 33.0175 -87.4153 242° Southwest 403 464 33,900 600 Climbing Atlanta Center
Sun 09:04:55 PM 32.9792 -87.5131 245° Southwest 396 456 34,000 41 Climbing Atlanta Center
Sun 09:06:21 PM 32.8936 -87.6878 240° Southwest 378 435 34,000  Level Memphis Center
Sun 09:07:21 PM 32.8439 -87.7956 241° Southwest 378 435 34,000  Level Memphis Center
Sun 09:08:21 PM 32.7939 -87.9033 241° Southwest 372 428 34,000  Level Memphis Center
Sun 09:09:21 PM 32.7478 -88.0108 243° Southwest 372 428 34,000  Level Memphis Center
Sun 09:10:21 PM 32.6997 -88.1133 241° Southwest 367 422 34,000  Level Memphis Center
Sun 09:11:21 PM 32.6492 -88.2181 240° Southwest 367 422 34,000  Level Memphis Center
Sun 09:12:21 PM 32.6050 -88.3228 243° Southwest 367 422 34,000  Level Memphis Center
Sun 09:13:21 PM 32.5567 -88.4250 241° Southwest 362 417 34,000  Level Memphis Center
Sun 09:14:21 PM 32.5061 -88.5294 240° Southwest 362 417 34,000  Level Memphis Center
Sun 09:15:21 PM 32.4594 -88.6339 242° Southwest 362 417 34,000  Level Memphis Center
Sun 09:16:21 PM 32.4086 -88.7356 239° Southwest 362 417 34,000  Level Memphis Center
Sun 09:17:21 PM 32.3661 -88.8397 244° Southwest 362 417 34,000  Level Memphis Center
Sun 09:18:21 PM 32.3361 -88.9508 252° West 357 411 34,000  Level Memphis Center
Sun 09:19:21 PM 32.3061 -89.0619 252° West 357 411 34,000  Level Memphis Center
Sun 09:20:21 PM 32.2736 -89.1706 251° West 357 411 34,000  Level Memphis Center
Sun 09:21:21 PM 32.2414 -89.2792 251° West 357 411 34,000  Level Memphis Center
Sun 09:22:21 PM 32.2108 -89.3900 252° West 352 405 34,000  Level Memphis Center
Sun 09:23:21 PM 32.1806 -89.5008 252° West 352 405 34,000  Level Memphis Center
Sun 09:24:21 PM 32.1456 -89.6089 249° West 352 405 34,000  Level Memphis Center
Sun 09:25:21 PM 32.1150 -89.7219 252° West 352 405 34,000  Level Memphis Center
Sun 09:26:21 PM 32.0819 -89.8303 250° West 357 411 34,000  Level Memphis Center
Sun 09:27:21 PM 32.0492 -89.9431 251° West 357 411 34,000  Level Memphis Center
Sun 09:28:21 PM 32.0161 -90.0511 250° West 357 411 34,000  Level Memphis Center
Sun 09:29:21 PM 31.9828 -90.1639 251° West 362 417 34,000  Level Memphis Center
Sun 09:30:21 PM 31.9475 -90.2767 250° West 368 423 34,000  Level Memphis Center
Sun 09:31:21 PM 31.9119 -90.3867 249° West 368 423 34,000  Level Memphis Center
Sun 09:33:31 PM 31.8442 -90.6164 251° West 358 412 34,000  Level Houston Center
Sun 09:34:32 PM 31.8097 -90.7267 250° West 360 414 34,000  Level Houston Center
Sun 09:35:33 PM 31.7778 -90.8353 251° West 356 410 34,000  Level Houston Center
Sun 09:36:34 PM 31.7444 -90.9436 250° West 354 407 34,000  Level Houston Center
Sun 09:37:36 PM 31.7111 -91.0511 250° West 353 406 34,000  Level Houston Center
Sun 09:38:37 PM 31.6756 -91.1647 250° West 355 409 34,000  Level Houston Center
Sun 09:39:38 PM 31.6417 -91.2742 250° West 357 411 34,000  Level Houston Center
Sun 09:40:39 PM 31.6103 -91.3858 252° West 360 414 34,000  Level Houston Center
Sun 09:41:40 PM 31.5692 -91.5203 250° West 364 419 34,000  Level Houston Center
Sun 09:42:41 PM 31.5339 -91.6325 250° West 366 421 34,000  Level Houston Center
Sun 09:43:42 PM 31.4964 -91.7425 248° West 364 419 34,000  Level Houston Center
Sun 09:44:43 PM 31.4581 -91.8525 248° West 363 418 34,000  Level Houston Center
Sun 09:45:44 PM 31.4208 -91.9625 248° West 364 419 34,000  Level Houston Center
Sun 09:46:45 PM 31.3792 -92.0769 247° West 359 413 34,000  Level Houston Center
Sun 09:47:46 PM 31.3414 -92.1858 248° West 360 414 34,000  Level Houston Center
Sun 09:48:47 PM 31.3025 -92.2953 247° West 363 418 34,000  Level Houston Center
Sun 09:49:48 PM 31.2633 -92.4036 247° West 363 418 34,000  Level Houston Center
Sun 09:50:49 PM 31.2233 -92.5133 247° West 367 422 34,000  Level Houston Center
Sun 09:51:51 PM 31.1850 -92.6208 247° West 362 417 34,000  Level Houston Center
Sun 09:52:52 PM 31.1469 -92.7306 248° West 363 418 34,000  Level Houston Center
Sun 09:53:52 PM 31.1081 -92.8389 247° West 364 419 34,000  Level Houston Center
Sun 09:54:53 PM 31.0681 -92.9481 247° West 365 420 34,000  Level Houston Center
Sun 09:55:55 PM 31.0286 -93.0567 247° West 365 420 34,000  Level Houston Center
Sun 09:56:56 PM 30.9814 -93.1881 247° West 367 422 34,000  Level Houston Center
Sun 09:57:57 PM 30.9428 -93.2989 248° West 370 426 34,000  Level Houston Center
Sun 09:58:58 PM 30.9033 -93.4097 247° West 372 428 34,000  Level Houston Center
Sun 09:59:59 PM 30.8633 -93.5225 248° West 378 435 34,000  Level Houston Center
Sun 10:01:00 PM 30.8233 -93.6344 247° West 377 434 34,000  Level Houston Center
Sun 10:02:00 PM 30.7831 -93.7467 247° West 378 435 34,000  Level Houston Center
Sun 10:03:01 PM 30.7417 -93.8603 247° West 383 441 34,000 -590 Level Houston Center
Sun 10:04:02 PM 30.7006 -93.9719 247° West 380 437 32,800 -1,918 Descending Houston Center
Sun 10:05:03 PM 30.6594 -94.0850 247° West 382 440 30,100 -3,148 Descending Houston Center
Sun 10:06:04 PM 30.6086 -94.2239 247° West 391 450 26,400 -3,197 Descending Houston Center
Sun 10:07:05 PM 30.5667 -94.3367 247° West 385 443 23,600 -3,000 Descending Houston Center
Sun 10:08:06 PM 30.5242 -94.4514 247° West 388 447 20,300 -2,803 Descending Houston Center
Sun 10:09:07 PM 30.4669 -94.5672 240° Southwest 386 444 17,900 -2,164 Descending Houston Center
Sun 10:10:08 PM 30.4100 -94.6558 233° Southwest 382 440 15,900 -1,967 Descending Houston Center
Sun 10:11:09 PM 30.3508 -94.7472 233° Southwest 361 415 13,900 -1,426 Descending Houston Center
Sun 10:12:10 PM 30.2914 -94.8367 232° Southwest 353 406 13,000 -443 Descending Houston Center
Sun 10:13:11 PM 30.2311 -94.9297 233° Southwest 359 413 13,000  Level Houston Center
Sun 10:14:12 PM 30.1711 -95.0214 233° Southwest 359 413 13,000  Level Houston Center
Sun 10:15:13 PM 30.0936 -95.0906 218° Southwest 364 419 13,000 -492 Level Houston Center
Sun 10:16:14 PM 29.9839 -95.1389 201° Southwest 354 407 12,000 -942 Descending Houston Center
Sun 10:17:14 PM 29.9069 -95.1719 200° South 299 344 11,100 -1,537 Descending Houston Center
Sun 10:18:15 PM 29.8322 -95.2053 201° Southwest 291 335 8,900 -2,552 Descending Houston Center
Sun 10:19:28 PM 29.8039 -95.3169 254° West 293 337 5,400 -2,597 Descending Houston Center
Sun 10:20:29 PM 29.7975 -95.4067 265° West 273 314 3,100 -1,800 Descending Houston Center
Sun 10:21:18 PM 29.7625 -95.4375 217° Southwest 262 302 2,100 -600 Descending Houston Center
Sun 10:22:19 PM 29.7394 -95.3886 118° Southeast 214 246 2,000 -246 Descending Houston Center
Sun 10:23:20 PM 29.7069 -95.3531 136° Southeast 180 207 1,600 -393 Descending Houston Center

Login

Don't have an account? Register now (free) for customized features, flight alerts, and more!